sensor_id;sensor_type;location;lat;lon;timestamp;P1;durP1;ratioP1;P2;durP2;ratioP2
12429;SDS011;6279;42.192;24.326;2023-08-08T00:00:08;1.60;;;1.50;;
12429;SDS011;6279;42.192;24.326;2023-08-08T00:02:37;2.33;;;1.57;;
12429;SDS011;6279;42.192;24.326;2023-08-08T00:05:04;2.03;;;1.43;;
12429;SDS011;6279;42.192;24.326;2023-08-08T00:07:29;1.57;;;1.47;;
12429;SDS011;6279;42.192;24.326;2023-08-08T00:09:55;1.57;;;1.27;;
12429;SDS011;6279;42.192;24.326;2023-08-08T00:12:21;1.20;;;1.10;;
12429;SDS011;6279;42.192;24.326;2023-08-08T00:14:47;1.80;;;1.03;;
12429;SDS011;6279;42.192;24.326;2023-08-08T00:17:12;2.07;;;1.10;;
12429;SDS011;6279;42.192;24.326;2023-08-08T00:19:38;1.20;;;1.10;;
12429;SDS011;6279;42.192;24.326;2023-08-08T00:22:03;1.57;;;1.13;;
12429;SDS011;6279;42.192;24.326;2023-08-08T00:24:29;1.30;;;1.13;;
12429;SDS011;6279;42.192;24.326;2023-08-08T00:26:54;3.07;;;0.90;;
12429;SDS011;6279;42.192;24.326;2023-08-08T00:29:19;1.03;;;0.90;;
12429;SDS011;6279;42.192;24.326;2023-08-08T00:31:45;0.60;;;0.53;;
12429;SDS011;6279;42.192;24.326;2023-08-08T00:34:10;3.27;;;0.73;;
12429;SDS011;6279;42.192;24.326;2023-08-08T00:36:36;0.50;;;0.50;;
12429;SDS011;6279;42.192;24.326;2023-08-08T00:39:01;0.80;;;0.77;;
12429;SDS011;6279;42.192;24.326;2023-08-08T00:41:26;3.37;;;0.83;;
12429;SDS011;6279;42.192;24.326;2023-08-08T00:43:52;1.83;;;0.90;;
12429;SDS011;6279;42.192;24.326;2023-08-08T00:46:20;0.83;;;0.70;;
12429;SDS011;6279;42.192;24.326;2023-08-08T00:48:47;1.20;;;0.90;;
12429;SDS011;6279;42.192;24.326;2023-08-08T00:51:12;1.23;;;0.80;;
12429;SDS011;6279;42.192;24.326;2023-08-08T00:53:38;0.80;;;0.77;;
12429;SDS011;6279;42.192;24.326;2023-08-08T00:56:04;3.17;;;0.83;;
12429;SDS011;6279;42.192;24.326;2023-08-08T00:58:30;1.27;;;0.90;;
12429;SDS011;6279;42.192;24.326;2023-08-08T01:00:55;1.50;;;0.80;;
12429;SDS011;6279;42.192;24.326;2023-08-08T01:03:24;1.00;;;0.90;;
12429;SDS011;6279;42.192;24.326;2023-08-08T01:06:03;1.37;;;0.90;;
12429;SDS011;6279;42.192;24.326;2023-08-08T01:08:39;0.90;;;0.90;;
12429;SDS011;6279;42.192;24.326;2023-08-08T01:11:10;1.20;;;1.10;;
12429;SDS011;6279;42.192;24.326;2023-08-08T01:13:36;1.87;;;0.97;;
12429;SDS011;6279;42.192;24.326;2023-08-08T01:16:03;2.90;;;1.03;;
12429;SDS011;6279;42.192;24.326;2023-08-08T01:18:30;1.57;;;1.10;;
12429;SDS011;6279;42.192;24.326;2023-08-08T01:20:57;1.50;;;0.97;;
12429;SDS011;6279;42.192;24.326;2023-08-08T01:25:52;1.40;;;0.90;;
12429;SDS011;6279;42.192;24.326;2023-08-08T01:28:21;1.20;;;1.10;;
12429;SDS011;6279;42.192;24.326;2023-08-08T01:30:47;2.50;;;1.20;;
12429;SDS011;6279;42.192;24.326;2023-08-08T01:33:13;1.20;;;1.00;;
12429;SDS011;6279;42.192;24.326;2023-08-08T01:35:38;1.07;;;0.80;;
12429;SDS011;6279;42.192;24.326;2023-08-08T01:38:19;1.10;;;0.80;;
12429;SDS011;6279;42.192;24.326;2023-08-08T01:40:51;1.30;;;1.00;;
12429;SDS011;6279;42.192;24.326;2023-08-08T01:43:18;1.10;;;1.00;;
12429;SDS011;6279;42.192;24.326;2023-08-08T01:45:45;1.00;;;0.90;;
12429;SDS011;6279;42.192;24.326;2023-08-08T01:48:11;1.83;;;1.07;;
12429;SDS011;6279;42.192;24.326;2023-08-08T01:50:36;1.27;;;1.17;;
12429;SDS011;6279;42.192;24.326;2023-08-08T01:53:02;2.50;;;1.00;;
12429;SDS011;6279;42.192;24.326;2023-08-08T01:55:28;1.60;;;1.00;;
12429;SDS011;6279;42.192;24.326;2023-08-08T01:57:54;1.30;;;1.10;;
12429;SDS011;6279;42.192;24.326;2023-08-08T02:00:19;1.80;;;1.10;;
12429;SDS011;6279;42.192;24.326;2023-08-08T02:02:45;2.10;;;0.93;;
12429;SDS011;6279;42.192;24.326;2023-08-08T02:05:10;1.10;;;1.00;;
12429;SDS011;6279;42.192;24.326;2023-08-08T02:07:36;0.90;;;0.90;;
12429;SDS011;6279;42.192;24.326;2023-08-08T02:10:01;3.83;;;1.00;;
12429;SDS011;6279;42.192;24.326;2023-08-08T02:12:26;1.17;;;1.00;;
12429;SDS011;6279;42.192;24.326;2023-08-08T02:14:53;1.53;;;1.20;;
12429;SDS011;6279;42.192;24.326;2023-08-08T02:17:19;1.20;;;1.10;;
12429;SDS011;6279;42.192;24.326;2023-08-08T02:19:45;2.67;;;1.13;;
12429;SDS011;6279;42.192;24.326;2023-08-08T02:22:11;1.50;;;1.40;;
12429;SDS011;6279;42.192;24.326;2023-08-08T02:24:36;1.60;;;1.27;;
12429;SDS011;6279;42.192;24.326;2023-08-08T02:27:02;2.37;;;1.47;;
12429;SDS011;6279;42.192;24.326;2023-08-08T02:29:27;3.03;;;1.47;;
12429;SDS011;6279;42.192;24.326;2023-08-08T02:31:53;1.97;;;1.30;;
12429;SDS011;6279;42.192;24.326;2023-08-08T02:34:18;3.93;;;1.40;;
12429;SDS011;6279;42.192;24.326;2023-08-08T02:36:43;2.93;;;1.40;;
12429;SDS011;6279;42.192;24.326;2023-08-08T02:39:09;2.83;;;1.30;;
12429;SDS011;6279;42.192;24.326;2023-08-08T02:41:34;2.07;;;1.47;;
12429;SDS011;6279;42.192;24.326;2023-08-08T02:44:00;4.80;;;1.50;;
12429;SDS011;6279;42.192;24.326;2023-08-08T02:46:25;4.57;;;2.13;;
12429;SDS011;6279;42.192;24.326;2023-08-08T02:48:50;2.90;;;1.73;;
12429;SDS011;6279;42.192;24.326;2023-08-08T02:51:16;5.23;;;1.40;;
12429;SDS011;6279;42.192;24.326;2023-08-08T02:53:41;3.50;;;1.33;;
12429;SDS011;6279;42.192;24.326;2023-08-08T02:56:07;1.53;;;1.40;;
12429;SDS011;6279;42.192;24.326;2023-08-08T02:58:32;2.83;;;1.20;;
12429;SDS011;6279;42.192;24.326;2023-08-08T03:00:57;1.53;;;1.00;;
12429;SDS011;6279;42.192;24.326;2023-08-08T03:03:23;2.00;;;1.10;;
12429;SDS011;6279;42.192;24.326;2023-08-08T03:05:49;1.53;;;0.93;;
12429;SDS011;6279;42.192;24.326;2023-08-08T03:08:14;1.30;;;1.00;;
12429;SDS011;6279;42.192;24.326;2023-08-08T03:10:39;4.50;;;1.33;;
12429;SDS011;6279;42.192;24.326;2023-08-08T03:13:06;1.40;;;1.20;;
12429;SDS011;6279;42.192;24.326;2023-08-08T03:15:31;1.90;;;1.10;;
12429;SDS011;6279;42.192;24.326;2023-08-08T03:17:57;1.30;;;1.20;;
12429;SDS011;6279;42.192;24.326;2023-08-08T03:20:22;1.80;;;1.20;;
12429;SDS011;6279;42.192;24.326;2023-08-08T03:22:48;2.63;;;1.20;;
12429;SDS011;6279;42.192;24.326;2023-08-08T03:25:13;1.70;;;1.20;;
12429;SDS011;6279;42.192;24.326;2023-08-08T03:27:38;2.27;;;1.30;;
12429;SDS011;6279;42.192;24.326;2023-08-08T03:30:04;2.53;;;1.40;;
12429;SDS011;6279;42.192;24.326;2023-08-08T03:32:30;1.93;;;1.40;;
12429;SDS011;6279;42.192;24.326;2023-08-08T03:34:55;1.60;;;1.50;;
12429;SDS011;6279;42.192;24.326;2023-08-08T03:37:21;2.27;;;1.43;;
12429;SDS011;6279;42.192;24.326;2023-08-08T03:39:46;3.27;;;1.50;;
12429;SDS011;6279;42.192;24.326;2023-08-08T03:42:11;2.30;;;1.30;;
12429;SDS011;6279;42.192;24.326;2023-08-08T03:44:37;1.70;;;1.60;;
12429;SDS011;6279;42.192;24.326;2023-08-08T03:47:02;2.80;;;1.53;;
12429;SDS011;6279;42.192;24.326;2023-08-08T03:49:28;3.57;;;1.70;;
12429;SDS011;6279;42.192;24.326;2023-08-08T03:51:53;3.03;;;1.70;;
12429;SDS011;6279;42.192;24.326;2023-08-08T03:54:19;3.93;;;1.90;;
12429;SDS011;6279;42.192;24.326;2023-08-08T03:56:44;4.17;;;2.40;;
12429;SDS011;6279;42.192;24.326;2023-08-08T03:59:09;2.77;;;1.57;;
12429;SDS011;6279;42.192;24.326;2023-08-08T04:01:35;2.10;;;1.80;;
12429;SDS011;6279;42.192;24.326;2023-08-08T04:04:01;3.70;;;2.20;;
12429;SDS011;6279;42.192;24.326;2023-08-08T04:06:26;3.27;;;2.27;;
12429;SDS011;6279;42.192;24.326;2023-08-08T04:08:51;4.10;;;2.10;;
12429;SDS011;6279;42.192;24.326;2023-08-08T04:11:17;3.57;;;2.00;;
12429;SDS011;6279;42.192;24.326;2023-08-08T04:13:42;4.43;;;1.70;;
12429;SDS011;6279;42.192;24.326;2023-08-08T04:16:07;3.03;;;2.10;;
12429;SDS011;6279;42.192;24.326;2023-08-08T04:18:33;4.03;;;1.97;;
12429;SDS011;6279;42.192;24.326;2023-08-08T04:20:58;5.93;;;1.90;;
12429;SDS011;6279;42.192;24.326;2023-08-08T04:23:24;4.27;;;2.00;;
12429;SDS011;6279;42.192;24.326;2023-08-08T04:25:51;4.60;;;2.23;;
12429;SDS011;6279;42.192;24.326;2023-08-08T04:28:17;2.33;;;2.00;;
12429;SDS011;6279;42.192;24.326;2023-08-08T04:30:42;3.30;;;1.97;;
12429;SDS011;6279;42.192;24.326;2023-08-08T04:33:08;2.97;;;1.80;;
12429;SDS011;6279;42.192;24.326;2023-08-08T04:35:33;6.03;;;3.40;;
12429;SDS011;6279;42.192;24.326;2023-08-08T04:37:58;8.90;;;6.87;;
12429;SDS011;6279;42.192;24.326;2023-08-08T04:40:24;2.63;;;1.97;;
12429;SDS011;6279;42.192;24.326;2023-08-08T04:42:51;2.43;;;2.13;;
12429;SDS011;6279;42.192;24.326;2023-08-08T04:45:17;2.97;;;1.97;;
12429;SDS011;6279;42.192;24.326;2023-08-08T04:47:42;6.63;;;1.77;;
12429;SDS011;6279;42.192;24.326;2023-08-08T04:50:07;2.53;;;2.07;;
12429;SDS011;6279;42.192;24.326;2023-08-08T04:52:33;4.07;;;1.93;;
12429;SDS011;6279;42.192;24.326;2023-08-08T04:54:59;3.53;;;2.33;;
12429;SDS011;6279;42.192;24.326;2023-08-08T04:57:24;2.93;;;2.10;;
12429;SDS011;6279;42.192;24.326;2023-08-08T04:59:49;2.73;;;2.20;;
12429;SDS011;6279;42.192;24.326;2023-08-08T05:02:15;2.33;;;1.90;;
12429;SDS011;6279;42.192;24.326;2023-08-08T05:04:41;2.27;;;1.70;;
12429;SDS011;6279;42.192;24.326;2023-08-08T05:07:06;4.10;;;2.20;;
12429;SDS011;6279;42.192;24.326;2023-08-08T05:09:32;3.73;;;2.03;;
12429;SDS011;6279;42.192;24.326;2023-08-08T05:11:58;2.47;;;1.90;;
12429;SDS011;6279;42.192;24.326;2023-08-08T05:14:23;4.83;;;1.90;;
12429;SDS011;6279;42.192;24.326;2023-08-08T05:16:49;5.07;;;2.00;;
12429;SDS011;6279;42.192;24.326;2023-08-08T05:19:14;5.60;;;2.30;;
12429;SDS011;6279;42.192;24.326;2023-08-08T05:21:39;2.50;;;2.30;;
12429;SDS011;6279;42.192;24.326;2023-08-08T05:24:05;2.00;;;1.87;;
12429;SDS011;6279;42.192;24.326;2023-08-08T05:26:31;2.47;;;2.27;;
12429;SDS011;6279;42.192;24.326;2023-08-08T05:28:56;4.37;;;2.53;;
12429;SDS011;6279;42.192;24.326;2023-08-08T05:31:21;2.40;;;2.20;;
12429;SDS011;6279;42.192;24.326;2023-08-08T05:33:48;3.23;;;2.00;;
12429;SDS011;6279;42.192;24.326;2023-08-08T05:36:14;2.60;;;2.37;;
12429;SDS011;6279;42.192;24.326;2023-08-08T05:38:39;2.37;;;2.13;;
12429;SDS011;6279;42.192;24.326;2023-08-08T05:41:06;2.53;;;2.30;;
12429;SDS011;6279;42.192;24.326;2023-08-08T05:43:32;2.67;;;2.33;;
12429;SDS011;6279;42.192;24.326;2023-08-08T05:45:58;4.07;;;2.33;;
12429;SDS011;6279;42.192;24.326;2023-08-08T05:48:24;2.40;;;2.20;;
12429;SDS011;6279;42.192;24.326;2023-08-08T05:50:49;2.50;;;2.20;;
12429;SDS011;6279;42.192;24.326;2023-08-08T05:53:14;2.40;;;2.00;;
12429;SDS011;6279;42.192;24.326;2023-08-08T05:55:42;2.17;;;1.97;;
12429;SDS011;6279;42.192;24.326;2023-08-08T05:58:08;3.87;;;2.00;;
12429;SDS011;6279;42.192;24.326;2023-08-08T06:00:34;2.93;;;2.03;;
12429;SDS011;6279;42.192;24.326;2023-08-08T06:02:59;2.93;;;2.30;;
12429;SDS011;6279;42.192;24.326;2023-08-08T06:05:25;2.40;;;2.20;;
12429;SDS011;6279;42.192;24.326;2023-08-08T06:07:51;5.03;;;2.40;;
12429;SDS011;6279;42.192;24.326;2023-08-08T06:10:16;2.97;;;2.37;;
12429;SDS011;6279;42.192;24.326;2023-08-08T06:12:42;2.53;;;2.33;;
12429;SDS011;6279;42.192;24.326;2023-08-08T06:15:08;2.93;;;2.20;;
12429;SDS011;6279;42.192;24.326;2023-08-08T06:17:33;2.37;;;2.17;;
12429;SDS011;6279;42.192;24.326;2023-08-08T06:19:59;2.57;;;2.20;;
12429;SDS011;6279;42.192;24.326;2023-08-08T06:22:24;2.00;;;1.90;;
12429;SDS011;6279;42.192;24.326;2023-08-08T06:24:50;3.33;;;1.77;;
12429;SDS011;6279;42.192;24.326;2023-08-08T06:27:16;1.80;;;1.70;;
12429;SDS011;6279;42.192;24.326;2023-08-08T06:29:42;2.93;;;1.70;;
12429;SDS011;6279;42.192;24.326;2023-08-08T06:32:07;1.97;;;1.70;;
12429;SDS011;6279;42.192;24.326;2023-08-08T06:34:36;1.60;;;1.50;;
12429;SDS011;6279;42.192;24.326;2023-08-08T06:37:01;2.50;;;1.67;;
12429;SDS011;6279;42.192;24.326;2023-08-08T06:39:27;2.17;;;1.80;;
12429;SDS011;6279;42.192;24.326;2023-08-08T06:41:52;2.83;;;1.70;;
12429;SDS011;6279;42.192;24.326;2023-08-08T06:44:18;5.63;;;2.03;;
12429;SDS011;6279;42.192;24.326;2023-08-08T06:46:44;2.13;;;1.40;;
12429;SDS011;6279;42.192;24.326;2023-08-08T06:49:09;1.67;;;1.43;;
12429;SDS011;6279;42.192;24.326;2023-08-08T06:51:35;1.70;;;1.53;;
12429;SDS011;6279;42.192;24.326;2023-08-08T06:54:00;1.60;;;1.50;;
12429;SDS011;6279;42.192;24.326;2023-08-08T06:56:26;2.07;;;1.53;;
12429;SDS011;6279;42.192;24.326;2023-08-08T06:58:52;3.10;;;1.70;;
12429;SDS011;6279;42.192;24.326;2023-08-08T07:01:18;1.33;;;1.23;;
12429;SDS011;6279;42.192;24.326;2023-08-08T07:03:44;2.40;;;1.40;;
12429;SDS011;6279;42.192;24.326;2023-08-08T07:06:09;2.43;;;1.40;;
12429;SDS011;6279;42.192;24.326;2023-08-08T07:08:35;1.60;;;1.40;;
12429;SDS011;6279;42.192;24.326;2023-08-08T07:11:02;1.83;;;1.40;;
12429;SDS011;6279;42.192;24.326;2023-08-08T07:13:27;1.30;;;1.20;;
12429;SDS011;6279;42.192;24.326;2023-08-08T07:15:53;2.27;;;1.47;;
12429;SDS011;6279;42.192;24.326;2023-08-08T07:18:18;1.47;;;1.20;;
12429;SDS011;6279;42.192;24.326;2023-08-08T07:20:44;1.40;;;1.30;;
12429;SDS011;6279;42.192;24.326;2023-08-08T07:23:09;2.37;;;1.73;;
12429;SDS011;6279;42.192;24.326;2023-08-08T07:25:35;3.77;;;2.00;;
12429;SDS011;6279;42.192;24.326;2023-08-08T07:28:00;2.57;;;1.70;;
12429;SDS011;6279;42.192;24.326;2023-08-08T07:30:26;3.30;;;1.70;;
12429;SDS011;6279;42.192;24.326;2023-08-08T07:32:51;1.87;;;1.27;;
12429;SDS011;6279;42.192;24.326;2023-08-08T07:35:16;1.97;;;1.10;;
12429;SDS011;6279;42.192;24.326;2023-08-08T07:37:42;1.87;;;1.40;;
12429;SDS011;6279;42.192;24.326;2023-08-08T07:40:14;1.50;;;1.20;;
12429;SDS011;6279;42.192;24.326;2023-08-08T07:42:42;1.70;;;1.40;;
12429;SDS011;6279;42.192;24.326;2023-08-08T07:45:08;2.23;;;1.40;;
12429;SDS011;6279;42.192;24.326;2023-08-08T07:47:34;2.70;;;1.50;;
12429;SDS011;6279;42.192;24.326;2023-08-08T07:49:59;1.40;;;1.23;;
12429;SDS011;6279;42.192;24.326;2023-08-08T07:52:25;1.67;;;1.30;;
12429;SDS011;6279;42.192;24.326;2023-08-08T07:54:51;1.33;;;1.23;;
12429;SDS011;6279;42.192;24.326;2023-08-08T07:57:16;1.40;;;1.30;;
12429;SDS011;6279;42.192;24.326;2023-08-08T07:59:42;1.70;;;1.10;;
12429;SDS011;6279;42.192;24.326;2023-08-08T08:02:07;1.13;;;1.02;;
12429;SDS011;6279;42.192;24.326;2023-08-08T08:04:33;2.67;;;1.40;;
12429;SDS011;6279;42.192;24.326;2023-08-08T08:06:59;1.50;;;1.35;;
12429;SDS011;6279;42.192;24.326;2023-08-08T08:09:24;1.42;;;1.30;;
12429;SDS011;6279;42.192;24.326;2023-08-08T08:11:49;1.20;;;1.10;;
12429;SDS011;6279;42.192;24.326;2023-08-08T08:14:15;3.75;;;1.40;;
12429;SDS011;6279;42.192;24.326;2023-08-08T08:16:40;1.60;;;1.35;;
12429;SDS011;6279;42.192;24.326;2023-08-08T08:19:06;1.30;;;1.20;;
12429;SDS011;6279;42.192;24.326;2023-08-08T08:21:31;1.63;;;1.17;;
12429;SDS011;6279;42.192;24.326;2023-08-08T08:23:56;1.30;;;1.20;;
12429;SDS011;6279;42.192;24.326;2023-08-08T08:26:22;1.38;;;1.25;;
12429;SDS011;6279;42.192;24.326;2023-08-08T08:28:47;1.67;;;1.10;;
12429;SDS011;6279;42.192;24.326;2023-08-08T08:31:12;3.08;;;1.38;;
12429;SDS011;6279;42.192;24.326;2023-08-08T08:33:38;1.60;;;1.23;;
12429;SDS011;6279;42.192;24.326;2023-08-08T08:36:03;2.08;;;1.10;;
12429;SDS011;6279;42.192;24.326;2023-08-08T08:38:29;1.27;;;0.80;;
12429;SDS011;6279;42.192;24.326;2023-08-08T08:40:56;4.28;;;1.10;;
12429;SDS011;6279;42.192;24.326;2023-08-08T08:43:21;1.73;;;1.17;;
12429;SDS011;6279;42.192;24.326;2023-08-08T08:45:49;1.15;;;1.05;;
12429;SDS011;6279;42.192;24.326;2023-08-08T08:48:16;1.83;;;1.30;;
12429;SDS011;6279;42.192;24.326;2023-08-08T08:50:44;1.05;;;0.90;;
12429;SDS011;6279;42.192;24.326;2023-08-08T08:53:12;2.38;;;0.98;;
12429;SDS011;6279;42.192;24.326;2023-08-08T08:55:38;1.33;;;1.00;;
12429;SDS011;6279;42.192;24.326;2023-08-08T08:58:04;1.48;;;1.00;;
12429;SDS011;6279;42.192;24.326;2023-08-08T09:00:31;1.70;;;1.10;;
12429;SDS011;6279;42.192;24.326;2023-08-08T09:02:57;1.02;;;0.93;;
12429;SDS011;6279;42.192;24.326;2023-08-08T09:05:23;1.50;;;1.20;;
12429;SDS011;6279;42.192;24.326;2023-08-08T09:07:50;2.40;;;2.20;;
12429;SDS011;6279;42.192;24.326;2023-08-08T09:10:16;2.17;;;1.98;;
12429;SDS011;6279;42.192;24.326;2023-08-08T09:12:43;1.73;;;1.33;;
12429;SDS011;6279;42.192;24.326;2023-08-08T09:15:09;1.10;;;0.90;;
12429;SDS011;6279;42.192;24.326;2023-08-08T09:17:35;2.63;;;1.33;;
12429;SDS011;6279;42.192;24.326;2023-08-08T09:20:01;1.42;;;0.80;;
12429;SDS011;6279;42.192;24.326;2023-08-08T09:22:26;1.13;;;1.02;;
12429;SDS011;6279;42.192;24.326;2023-08-08T09:24:53;1.30;;;1.00;;
12429;SDS011;6279;42.192;24.326;2023-08-08T09:27:20;2.75;;;1.88;;
12429;SDS011;6279;42.192;24.326;2023-08-08T09:29:45;2.78;;;1.38;;
12429;SDS011;6279;42.192;24.326;2023-08-08T09:32:11;3.53;;;1.40;;
12429;SDS011;6279;42.192;24.326;2023-08-08T09:34:40;1.27;;;0.80;;
12429;SDS011;6279;42.192;24.326;2023-08-08T09:37:07;1.27;;;1.10;;
12429;SDS011;6279;42.192;24.326;2023-08-08T09:39:33;1.08;;;0.80;;
12429;SDS011;6279;42.192;24.326;2023-08-08T09:41:58;1.58;;;0.95;;
12429;SDS011;6279;42.192;24.326;2023-08-08T09:44:26;1.13;;;1.00;;
12429;SDS011;6279;42.192;24.326;2023-08-08T09:46:54;3.65;;;1.13;;
12429;SDS011;6279;42.192;24.326;2023-08-08T09:49:20;1.52;;;1.08;;
12429;SDS011;6279;42.192;24.326;2023-08-08T09:51:46;1.10;;;0.95;;
12429;SDS011;6279;42.192;24.326;2023-08-08T09:54:13;1.20;;;1.08;;
12429;SDS011;6279;42.192;24.326;2023-08-08T09:56:39;0.98;;;0.80;;
12429;SDS011;6279;42.192;24.326;2023-08-08T09:59:05;1.40;;;1.20;;
12429;SDS011;6279;42.192;24.326;2023-08-08T10:01:31;1.48;;;1.00;;
12429;SDS011;6279;42.192;24.326;2023-08-08T10:03:57;2.10;;;1.15;;
12429;SDS011;6279;42.192;24.326;2023-08-08T10:06:23;1.42;;;1.02;;
12429;SDS011;6279;42.192;24.326;2023-08-08T10:08:49;4.45;;;1.25;;
12429;SDS011;6279;42.192;24.326;2023-08-08T10:11:14;1.45;;;1.13;;
12429;SDS011;6279;42.192;24.326;2023-08-08T10:13:47;2.17;;;1.27;;
12429;SDS011;6279;42.192;24.326;2023-08-08T10:16:15;3.58;;;1.20;;
12429;SDS011;6279;42.192;24.326;2023-08-08T10:18:41;1.50;;;1.40;;
12429;SDS011;6279;42.192;24.326;2023-08-08T10:21:07;2.60;;;0.85;;
12429;SDS011;6279;42.192;24.326;2023-08-08T10:23:38;4.93;;;1.27;;
12429;SDS011;6279;42.192;24.326;2023-08-08T10:26:05;1.35;;;1.25;;
12429;SDS011;6279;42.192;24.326;2023-08-08T10:28:51;1.33;;;1.23;;
12429;SDS011;6279;42.192;24.326;2023-08-08T10:31:21;1.75;;;1.00;;
12429;SDS011;6279;42.192;24.326;2023-08-08T10:33:46;1.02;;;0.93;;
12429;SDS011;6279;42.192;24.326;2023-08-08T10:36:12;1.80;;;1.20;;
12429;SDS011;6279;42.192;24.326;2023-08-08T10:38:44;0.93;;;0.82;;
12429;SDS011;6279;42.192;24.326;2023-08-08T10:41:19;3.17;;;1.23;;
12429;SDS011;6279;42.192;24.326;2023-08-08T10:43:53;1.90;;;1.20;;
12429;SDS011;6279;42.192;24.326;2023-08-08T10:46:25;2.08;;;1.00;;
12429;SDS011;6279;42.192;24.326;2023-08-08T10:48:58;1.20;;;1.00;;
12429;SDS011;6279;42.192;24.326;2023-08-08T10:51:36;1.48;;;1.13;;
12429;SDS011;6279;42.192;24.326;2023-08-08T10:54:03;1.42;;;1.10;;
12429;SDS011;6279;42.192;24.326;2023-08-08T10:56:30;3.40;;;1.20;;
12429;SDS011;6279;42.192;24.326;2023-08-08T10:58:56;1.63;;;1.13;;
12429;SDS011;6279;42.192;24.326;2023-08-08T11:01:25;5.45;;;1.48;;
12429;SDS011;6279;42.192;24.326;2023-08-08T11:03:50;1.58;;;1.08;;
12429;SDS011;6279;42.192;24.326;2023-08-08T11:06:16;1.48;;;1.13;;
12429;SDS011;6279;42.192;24.326;2023-08-08T11:08:44;2.00;;;1.02;;
12429;SDS011;6279;42.192;24.326;2023-08-08T11:11:09;1.73;;;1.17;;
12429;SDS011;6279;42.192;24.326;2023-08-08T11:13:34;2.10;;;1.05;;
12429;SDS011;6279;42.192;24.326;2023-08-08T11:16:00;2.90;;;1.08;;
12429;SDS011;6279;42.192;24.326;2023-08-08T11:18:29;1.25;;;0.98;;
12429;SDS011;6279;42.192;24.326;2023-08-08T11:20:54;1.63;;;1.15;;
12429;SDS011;6279;42.192;24.326;2023-08-08T11:23:20;2.15;;;1.23;;
12429;SDS011;6279;42.192;24.326;2023-08-08T11:25:46;4.93;;;1.10;;
12429;SDS011;6279;42.192;24.326;2023-08-08T11:28:12;1.13;;;1.02;;
12429;SDS011;6279;42.192;24.326;2023-08-08T11:30:41;1.33;;;1.10;;
12429;SDS011;6279;42.192;24.326;2023-08-08T11:33:08;1.60;;;1.08;;
12429;SDS011;6279;42.192;24.326;2023-08-08T11:35:34;1.27;;;1.10;;
12429;SDS011;6279;42.192;24.326;2023-08-08T11:37:59;1.10;;;1.00;;
12429;SDS011;6279;42.192;24.326;2023-08-08T11:40:27;1.40;;;1.20;;
12429;SDS011;6279;42.192;24.326;2023-08-08T11:42:54;1.17;;;1.08;;
12429;SDS011;6279;42.192;24.326;2023-08-08T11:45:24;1.17;;;1.08;;
12429;SDS011;6279;42.192;24.326;2023-08-08T11:47:50;1.00;;;0.90;;
12429;SDS011;6279;42.192;24.326;2023-08-08T11:50:18;3.80;;;1.75;;
12429;SDS011;6279;42.192;24.326;2023-08-08T11:52:50;2.15;;;1.30;;
12429;SDS011;6279;42.192;24.326;2023-08-08T11:55:18;1.92;;;1.77;;
12429;SDS011;6279;42.192;24.326;2023-08-08T11:57:47;1.60;;;1.27;;
12429;SDS011;6279;42.192;24.326;2023-08-08T12:00:13;2.28;;;1.27;;
12429;SDS011;6279;42.192;24.326;2023-08-08T12:02:40;1.33;;;1.23;;
12429;SDS011;6279;42.192;24.326;2023-08-08T12:05:07;2.65;;;2.00;;
12429;SDS011;6279;42.192;24.326;2023-08-08T12:07:36;1.60;;;1.50;;
12429;SDS011;6279;42.192;24.326;2023-08-08T12:10:05;1.30;;;1.20;;
12429;SDS011;6279;42.192;24.326;2023-08-08T12:12:31;2.65;;;1.20;;
12429;SDS011;6279;42.192;24.326;2023-08-08T12:15:03;1.15;;;1.05;;
12429;SDS011;6279;42.192;24.326;2023-08-08T12:17:31;3.45;;;2.72;;
12429;SDS011;6279;42.192;24.326;2023-08-08T12:20:00;6.05;;;1.50;;
12429;SDS011;6279;42.192;24.326;2023-08-08T12:22:26;1.55;;;1.38;;
12429;SDS011;6279;42.192;24.326;2023-08-08T12:24:51;2.25;;;1.08;;
12429;SDS011;6279;42.192;24.326;2023-08-08T12:27:17;2.50;;;1.30;;
12429;SDS011;6279;42.192;24.326;2023-08-08T12:29:42;1.52;;;1.38;;
12429;SDS011;6279;42.192;24.326;2023-08-08T12:32:09;1.20;;;1.10;;
12429;SDS011;6279;42.192;24.326;2023-08-08T12:34:35;3.08;;;1.70;;
12429;SDS011;6279;42.192;24.326;2023-08-08T12:37:01;4.20;;;2.47;;
12429;SDS011;6279;42.192;24.326;2023-08-08T12:39:26;1.60;;;1.40;;
12429;SDS011;6279;42.192;24.326;2023-08-08T12:41:51;1.48;;;1.20;;
12429;SDS011;6279;42.192;24.326;2023-08-08T12:44:17;1.67;;;1.30;;
12429;SDS011;6279;42.192;24.326;2023-08-08T12:46:42;1.40;;;1.20;;
12429;SDS011;6279;42.192;24.326;2023-08-08T12:49:07;1.17;;;1.08;;
12429;SDS011;6279;42.192;24.326;2023-08-08T12:51:33;2.17;;;1.17;;
12429;SDS011;6279;42.192;24.326;2023-08-08T12:53:58;1.58;;;1.30;;
12429;SDS011;6279;42.192;24.326;2023-08-08T12:56:24;1.33;;;1.23;;
12429;SDS011;6279;42.192;24.326;2023-08-08T12:58:49;2.40;;;1.38;;
12429;SDS011;6279;42.192;24.326;2023-08-08T13:01:15;3.30;;;1.50;;
12429;SDS011;6279;42.192;24.326;2023-08-08T13:03:40;2.92;;;1.30;;
12429;SDS011;6279;42.192;24.326;2023-08-08T13:06:06;1.67;;;1.20;;
12429;SDS011;6279;42.192;24.326;2023-08-08T13:08:31;1.30;;;1.20;;
12429;SDS011;6279;42.192;24.326;2023-08-08T13:10:57;1.40;;;1.20;;
12429;SDS011;6279;42.192;24.326;2023-08-08T13:13:23;1.70;;;1.38;;
12429;SDS011;6279;42.192;24.326;2023-08-08T13:15:50;1.70;;;1.60;;
12429;SDS011;6279;42.192;24.326;2023-08-08T13:18:16;1.83;;;1.60;;
12429;SDS011;6279;42.192;24.326;2023-08-08T13:20:42;2.55;;;1.45;;
12429;SDS011;6279;42.192;24.326;2023-08-08T13:23:07;2.50;;;1.38;;
12429;SDS011;6279;42.192;24.326;2023-08-08T13:25:33;1.38;;;1.27;;
12429;SDS011;6279;42.192;24.326;2023-08-08T13:27:59;3.67;;;1.80;;
12429;SDS011;6279;42.192;24.326;2023-08-08T13:30:26;5.68;;;1.70;;
12429;SDS011;6279;42.192;24.326;2023-08-08T13:32:51;2.67;;;2.03;;
12429;SDS011;6279;42.192;24.326;2023-08-08T13:35:16;3.70;;;1.55;;
12429;SDS011;6279;42.192;24.326;2023-08-08T13:37:42;1.50;;;1.40;;
12429;SDS011;6279;42.192;24.326;2023-08-08T13:40:07;1.40;;;1.27;;
12429;SDS011;6279;42.192;24.326;2023-08-08T13:42:33;2.72;;;2.53;;
12429;SDS011;6279;42.192;24.326;2023-08-08T13:44:59;3.13;;;1.30;;
12429;SDS011;6279;42.192;24.326;2023-08-08T13:47:24;2.88;;;1.40;;
12429;SDS011;6279;42.192;24.326;2023-08-08T13:49:50;2.78;;;1.70;;
12429;SDS011;6279;42.192;24.326;2023-08-08T13:52:17;2.45;;;1.33;;
12429;SDS011;6279;42.192;24.326;2023-08-08T13:54:42;2.88;;;1.90;;
12429;SDS011;6279;42.192;24.326;2023-08-08T13:57:11;5.65;;;1.85;;
12429;SDS011;6279;42.192;24.326;2023-08-08T13:59:36;3.22;;;1.52;;
12429;SDS011;6279;42.192;24.326;2023-08-08T14:02:02;1.90;;;1.70;;
12429;SDS011;6279;42.192;24.326;2023-08-08T14:04:27;2.25;;;1.60;;
12429;SDS011;6279;42.192;24.326;2023-08-08T14:06:53;1.85;;;1.50;;
12429;SDS011;6279;42.192;24.326;2023-08-08T14:09:18;2.72;;;1.50;;
12429;SDS011;6279;42.192;24.326;2023-08-08T14:11:44;4.57;;;1.58;;
12429;SDS011;6279;42.192;24.326;2023-08-08T14:14:09;2.47;;;1.58;;
12429;SDS011;6279;42.192;24.326;2023-08-08T14:16:34;1.40;;;1.30;;
12429;SDS011;6279;42.192;24.326;2023-08-08T14:19:00;4.88;;;1.40;;
12429;SDS011;6279;42.192;24.326;2023-08-08T14:21:25;5.10;;;3.00;;
12429;SDS011;6279;42.192;24.326;2023-08-08T14:23:51;4.82;;;1.70;;
12429;SDS011;6279;42.192;24.326;2023-08-08T14:26:16;3.58;;;1.55;;
12429;SDS011;6279;42.192;24.326;2023-08-08T14:28:42;2.22;;;1.30;;
12429;SDS011;6279;42.192;24.326;2023-08-08T14:31:07;2.22;;;1.60;;
12429;SDS011;6279;42.192;24.326;2023-08-08T14:33:33;2.05;;;1.52;;
12429;SDS011;6279;42.192;24.326;2023-08-08T14:35:58;1.48;;;1.38;;
12429;SDS011;6279;42.192;24.326;2023-08-08T14:38:24;2.95;;;1.38;;
12429;SDS011;6279;42.192;24.326;2023-08-08T14:40:50;2.05;;;1.35;;
12429;SDS011;6279;42.192;24.326;2023-08-08T14:43:18;1.45;;;1.33;;